createdAt,value
2022-07-27T00:01:50.594Z,100470.81
2022-07-27T00:04:18.594Z,100470.88
2022-07-27T00:06:45.602Z,100474.34
2022-07-27T00:09:12.703Z,100475.03
2022-07-27T00:11:39.678Z,100468.78
2022-07-27T00:14:06.342Z,100478.72
2022-07-27T00:16:33.147Z,100467.28
2022-07-27T00:19:00.169Z,100477.66
2022-07-27T00:21:27.021Z,100494.53
2022-07-27T00:23:54.680Z,100485.94
2022-07-27T00:26:21.625Z,100486.88
2022-07-27T00:28:49.051Z,100481.72
2022-07-27T00:31:16.225Z,100485.66
2022-07-27T00:33:43.064Z,100475.03
2022-07-27T00:36:10.047Z,100477.34
2022-07-27T00:38:36.721Z,100477.38
2022-07-27T00:41:03.457Z,100472.50
2022-07-27T00:43:30.375Z,100469.50
2022-07-27T00:45:57.016Z,100462.78
2022-07-27T00:48:23.654Z,100464.88
2022-07-27T00:50:51.890Z,100461.88
2022-07-27T00:53:18.501Z,100471.13
2022-07-27T00:55:45.888Z,100480.88
2022-07-27T00:58:12.605Z,100479.47
2022-07-27T01:00:39.760Z,100473.66
2022-07-27T01:03:08.641Z,100465.63
2022-07-27T01:05:40.033Z,100472.41
2022-07-27T01:08:12.566Z,100465.25
2022-07-27T01:10:40.610Z,100464.75
2022-07-27T01:13:12.500Z,100465.13
2022-07-27T01:15:41.382Z,100465.53
2022-07-27T01:18:27.159Z,100470.88
2022-07-27T01:20:54.299Z,100466.25
2022-07-27T01:23:21.576Z,100459.56
2022-07-27T01:25:48.452Z,100469.22
2022-07-27T01:28:15.123Z,100473.19
2022-07-27T01:30:41.772Z,100463.50
2022-07-27T01:33:10.068Z,100462.34
2022-07-27T01:35:38.761Z,100466.88
2022-07-27T01:38:07.069Z,100469.84
2022-07-27T01:40:36.363Z,100453.50
2022-07-27T01:43:05.181Z,100456.44
2022-07-27T01:45:31.827Z,100472.28
2022-07-27T01:47:58.570Z,100453.53
2022-07-27T01:50:25.206Z,100467.28
2022-07-27T01:52:51.809Z,100460.09
2022-07-27T01:55:18.412Z,100452.19
2022-07-27T01:57:44.985Z,100454.25
2022-07-27T02:00:12.424Z,100462.50
2022-07-27T02:02:40.056Z,100449.53
2022-07-27T02:05:08.230Z,100451.53
2022-07-27T02:07:34.859Z,100445.53
2022-07-27T02:10:01.694Z,100455.59
2022-07-27T02:12:36.673Z,100444.06
2022-07-27T02:15:06.232Z,100440.94
2022-07-27T02:17:33.314Z,100451.16
2022-07-27T02:20:02.348Z,100443.22
2022-07-27T02:22:29.103Z,100438.50
2022-07-27T02:24:56.099Z,100436.25
2022-07-27T02:27:22.930Z,100432.59
2022-07-27T02:29:49.682Z,100441.97
2022-07-27T02:32:16.425Z,100430.59
2022-07-27T02:34:43.271Z,100434.03
2022-07-27T02:37:10.064Z,100435.59
2022-07-27T02:39:36.959Z,100434.06
2022-07-27T02:42:04.082Z,100433.78
2022-07-27T02:44:30.768Z,100459.28
2022-07-27T02:46:57.458Z,100435.66
2022-07-27T02:49:24.208Z,100442.41
2022-07-27T02:51:52.786Z,100436.16
2022-07-27T02:54:25.153Z,100435.13
2022-07-27T02:56:53.132Z,100439.00
2022-07-27T02:59:20.771Z,100442.75
2022-07-27T03:01:48.073Z,100441.50
2022-07-27T03:04:15.767Z,100452.19
2022-07-27T03:06:43.090Z,100438.38
2022-07-27T03:09:10.412Z,100440.28
2022-07-27T03:11:37.927Z,100434.06
2022-07-27T03:14:04.830Z,100437.47
2022-07-27T03:16:31.565Z,100429.22
2022-07-27T03:18:58.749Z,100433.88
2022-07-27T03:21:25.483Z,100428.22
2022-07-27T03:23:52.282Z,100428.66
2022-07-27T03:26:19.285Z,100448.69
2022-07-27T03:28:46.022Z,100440.66
2022-07-27T03:31:12.752Z,100452.25
2022-07-27T03:33:39.387Z,100485.44
2022-07-27T03:36:07.249Z,100458.63
2022-07-27T03:38:33.865Z,100477.97
2022-07-27T03:41:00.525Z,100449.53
2022-07-27T03:43:27.169Z,100455.84
2022-07-27T03:45:53.821Z,100454.50
2022-07-27T03:48:20.440Z,100448.47
2022-07-27T03:50:47.045Z,100458.66
2022-07-27T03:53:13.756Z,100458.41
2022-07-27T03:55:40.466Z,100458.81
2022-07-27T03:58:07.193Z,100453.56
2022-07-27T04:00:33.820Z,100445.38
2022-07-27T04:03:00.540Z,100460.53
2022-07-27T04:05:29.360Z,100449.41
2022-07-27T04:07:56.867Z,100445.44
2022-07-27T04:10:24.987Z,100447.41
2022-07-27T04:12:56.029Z,100447.13
2022-07-27T04:15:23.291Z,100459.13
2022-07-27T04:17:55.407Z,100467.56
2022-07-27T04:20:24.551Z,100468.22
2022-07-27T04:22:51.321Z,100457.31
2022-07-27T04:25:18.178Z,100466.91
2022-07-27T04:27:44.798Z,100459.84
2022-07-27T04:30:12.033Z,100454.44
2022-07-27T04:32:39.186Z,100466.09
2022-07-27T04:35:07.360Z,100455.13
2022-07-27T04:37:35.050Z,100453.25
2022-07-27T04:40:02.041Z,100454.00
2022-07-27T04:42:29.947Z,100475.38
2022-07-27T04:44:57.021Z,100464.03
2022-07-27T04:47:24.189Z,100474.41
2022-07-27T04:49:50.964Z,100481.50
2022-07-27T04:52:17.653Z,100469.34
2022-07-27T04:54:45.855Z,100470.09
2022-07-27T04:57:12.494Z,100464.06
2022-07-27T04:59:39.085Z,100463.72
2022-07-27T05:02:05.791Z,100462.31
2022-07-27T05:04:32.538Z,100467.34
2022-07-27T05:06:59.212Z,100468.72
2022-07-27T05:09:25.910Z,100465.06
2022-07-27T05:11:53.242Z,100459.25
2022-07-27T05:14:21.340Z,100459.75
2022-07-27T05:16:49.224Z,100475.25
2022-07-27T05:19:16.128Z,100478.72
2022-07-27T05:21:43.065Z,100470.75
2022-07-27T05:24:10.178Z,100468.53
2022-07-27T05:26:37.647Z,100478.53
2022-07-27T05:29:04.758Z,100481.53
2022-07-27T05:31:31.483Z,100476.41
2022-07-27T05:33:58.646Z,100466.19
2022-07-27T05:36:27.361Z,100485.94
2022-07-27T05:38:54.118Z,100479.22
2022-07-27T05:41:24.831Z,100482.09
2022-07-27T05:43:52.077Z,100492.53
2022-07-27T05:46:18.754Z,100473.50
2022-07-27T05:48:45.564Z,100479.31
2022-07-27T05:51:12.223Z,100488.53
2022-07-27T05:53:39.402Z,100486.69
2022-07-27T05:56:09.114Z,100497.75
2022-07-27T05:58:35.778Z,100493.94
2022-07-27T06:01:02.601Z,100501.41
2022-07-27T06:03:29.496Z,100497.81
2022-07-27T06:06:16.120Z,100501.44
2022-07-27T06:08:42.898Z,100516.19
2022-07-27T06:11:09.686Z,100496.88
2022-07-27T06:13:37.113Z,100504.28
2022-07-27T06:16:11.435Z,100523.88
2022-07-27T06:18:38.488Z,100509.78
2022-07-27T06:21:05.784Z,100508.34
2022-07-27T06:23:32.659Z,100515.53
2022-07-27T06:26:00.422Z,100519.91
2022-07-27T06:28:27.060Z,100518.31
2022-07-27T06:30:53.776Z,100524.06
2022-07-27T06:33:30.852Z,100528.44
2022-07-27T06:35:59.649Z,100512.81
2022-07-27T06:38:28.861Z,100527.16
2022-07-27T06:40:56.036Z,100516.41
2022-07-27T06:43:28.431Z,100522.63
2022-07-27T06:45:55.252Z,100525.81
2022-07-27T06:48:22.559Z,100545.03
2022-07-27T06:50:49.963Z,100534.22
2022-07-27T06:53:20.881Z,100536.31
2022-07-27T06:55:47.987Z,100534.66
2022-07-27T06:58:17.162Z,100530.41
2022-07-27T07:00:43.989Z,100528.03
2022-07-27T07:03:11.421Z,100541.81
2022-07-27T07:05:44.282Z,100527.66
2022-07-27T07:08:12.093Z,100536.81
2022-07-27T07:10:40.319Z,100537.84
2022-07-27T07:13:08.087Z,100533.25
2022-07-27T07:15:38.611Z,100539.25
2022-07-27T07:18:06.698Z,100537.09
2022-07-27T07:20:35.275Z,100546.31
2022-07-27T07:23:02.045Z,100546.13
2022-07-27T07:25:29.259Z,100537.63
2022-07-27T07:27:56.614Z,100540.69
2022-07-27T07:30:23.810Z,100551.06
2022-07-27T07:32:50.544Z,100541.50
2022-07-27T07:35:17.493Z,100548.38
2022-07-27T07:37:50.605Z,100554.38
2022-07-27T07:40:42.698Z,100546.81
2022-07-27T07:43:08.355Z,100553.47
2022-07-27T07:45:50.782Z,100552.91
2022-07-27T07:48:19.648Z,100558.56
2022-07-27T07:50:46.361Z,100560.56
2022-07-27T07:53:19.916Z,100560.53
2022-07-27T07:55:46.601Z,100565.38
2022-07-27T07:58:15.715Z,100561.75
2022-07-27T08:00:43.794Z,100569.53
2022-07-27T08:03:10.657Z,100568.66
2022-07-27T08:05:37.675Z,100578.63
2022-07-27T08:08:04.591Z,100579.91
2022-07-27T08:10:31.567Z,100570.38
2022-07-27T08:12:58.430Z,100582.00
2022-07-27T08:15:35.340Z,100581.63
2022-07-27T08:18:06.950Z,100575.81
2022-07-27T08:20:34.116Z,100598.28
2022-07-27T08:23:01.443Z,100586.00
2022-07-27T08:25:28.287Z,100607.66
2022-07-27T08:27:55.500Z,100600.31
2022-07-27T08:30:23.782Z,100599.41
2022-07-27T08:32:59.776Z,100591.78
2022-07-27T08:35:28.083Z,100600.63
2022-07-27T08:37:55.864Z,100603.63
2022-07-27T08:40:42.628Z,100602.94
2022-07-27T08:43:18.967Z,100610.94
2022-07-27T08:45:55.641Z,100605.19
2022-07-27T08:48:25.593Z,100597.66
2022-07-27T08:50:52.737Z,100607.09
2022-07-27T08:53:19.727Z,100611.31
2022-07-27T08:55:47.666Z,100604.56
2022-07-27T08:58:16.066Z,100623.69
2022-07-27T09:00:45.169Z,100616.59
2022-07-27T09:03:18.896Z,100614.69
2022-07-27T09:05:49.536Z,100617.63
2022-07-27T09:08:21.339Z,100617.41
2022-07-27T09:10:48.493Z,100610.72
2022-07-27T09:13:34.567Z,100613.66
2022-07-27T09:16:20.839Z,100618.69
2022-07-27T09:19:01.436Z,100619.03
2022-07-27T09:21:28.513Z,100606.56
2022-07-27T09:24:23.551Z,100616.00
2022-07-27T09:27:03.170Z,100629.16
2022-07-27T09:29:34.728Z,100617.44
2022-07-27T09:32:14.496Z,100617.19
2022-07-27T09:34:41.387Z,100617.44
2022-07-27T09:37:09.410Z,100615.00
2022-07-27T09:39:35.998Z,100615.53
2022-07-27T09:42:03.264Z,100620.56
2022-07-27T09:44:43.136Z,100621.34
2022-07-27T09:47:22.955Z,100619.34
2022-07-27T09:49:49.712Z,100614.72
2022-07-27T09:52:28.736Z,100611.00
2022-07-27T09:55:03.043Z,100621.72
2022-07-27T09:57:29.885Z,100613.84
2022-07-27T10:00:13.934Z,100614.53
2022-07-27T10:02:42.860Z,100620.16
2022-07-27T10:05:10.502Z,100626.66
2022-07-27T10:07:38.205Z,100625.41
2022-07-27T10:10:05.320Z,100622.75
2022-07-27T10:12:32.661Z,100625.00
2022-07-27T10:14:59.471Z,100630.38
2022-07-27T10:17:26.976Z,100631.72
2022-07-27T10:19:56.873Z,100639.56
2022-07-27T10:22:52.172Z,100626.75
2022-07-27T10:25:20.054Z,100633.53
2022-07-27T10:27:49.218Z,100633.41
2022-07-27T10:30:23.919Z,100635.03
2022-07-27T10:32:57.011Z,100628.50
2022-07-27T10:35:34.270Z,100632.16
2022-07-27T10:38:16.707Z,100630.56
2022-07-27T10:40:44.183Z,100629.00
2022-07-27T10:43:22.248Z,100627.63
2022-07-27T10:46:01.634Z,100639.44
2022-07-27T10:48:37.447Z,100647.59
2022-07-27T10:51:08.511Z,100638.16
2022-07-27T10:54:10.507Z,100643.31
2022-07-27T10:56:47.358Z,100637.94
2022-07-27T10:59:14.517Z,100648.88
2022-07-27T11:01:58.055Z,100642.88
2022-07-27T11:04:24.935Z,100646.16
2022-07-27T11:07:23.986Z,100650.69
2022-07-27T11:10:06.296Z,100635.75
2022-07-27T11:12:34.786Z,100646.16
2022-07-27T11:15:01.578Z,100645.56
2022-07-27T11:17:52.847Z,100653.53
2022-07-27T11:20:22.796Z,100655.53
2022-07-27T11:25:36.073Z,100663.16
2022-07-27T11:28:09.541Z,100651.13
2022-07-27T11:30:36.514Z,100658.38
2022-07-27T11:33:05.991Z,100650.53
2022-07-27T11:35:32.739Z,100645.47
2022-07-27T11:38:05.686Z,100645.28
2022-07-27T11:43:36.744Z,100674.19
2022-07-27T11:46:27.378Z,100651.31
2022-07-27T11:49:09.624Z,100653.13
2022-07-27T11:51:49.114Z,100657.38
2022-07-27T11:54:26.556Z,100652.34
2022-07-27T11:56:57.705Z,100658.63
2022-07-27T11:59:28.754Z,100667.19
2022-07-27T12:01:56.955Z,100671.00
2022-07-27T12:04:25.324Z,100667.41
2022-07-27T12:06:57.438Z,100663.13
2022-07-27T12:09:25.407Z,100675.59
2022-07-27T12:12:01.405Z,100688.09
2022-07-27T12:14:58.038Z,100674.16
2022-07-27T12:17:35.685Z,100673.84
2022-07-27T12:20:10.495Z,100679.28
2022-07-27T12:22:46.172Z,100687.44
2022-07-27T12:25:18.995Z,100678.41
2022-07-27T12:27:59.257Z,100685.78
2022-07-27T12:30:44.918Z,100676.78
2022-07-27T12:33:39.695Z,100683.16
2022-07-27T12:36:09.475Z,100684.84
2022-07-27T12:38:43.725Z,100683.94
2022-07-27T12:41:11.536Z,100690.31
2022-07-27T12:43:38.477Z,100679.19
2022-07-27T12:46:13.457Z,100686.13
2022-07-27T12:48:42.236Z,100686.78
2022-07-27T12:51:10.203Z,100684.63
2022-07-27T12:53:38.188Z,100680.94
2022-07-27T12:56:08.115Z,100692.72
2022-07-27T12:58:36.038Z,100693.47
2022-07-27T13:01:03.158Z,100692.88
2022-07-27T13:03:29.930Z,100697.59
2022-07-27T13:05:56.817Z,100690.69
2022-07-27T13:08:23.564Z,100699.97
2022-07-27T13:10:52.259Z,100691.69
2022-07-27T13:13:24.297Z,100707.09
2022-07-27T13:15:50.995Z,100693.19
2022-07-27T13:18:23.159Z,100733.06
2022-07-27T13:20:51.508Z,100700.94
2022-07-27T13:23:18.336Z,100723.25
2022-07-27T13:25:45.192Z,100715.47
2022-07-27T13:28:12.224Z,100712.91
2022-07-27T13:30:39.020Z,100711.06
2022-07-27T13:33:05.747Z,100712.78
2022-07-27T13:35:32.459Z,100721.63
2022-07-27T13:37:59.506Z,100732.34
2022-07-27T13:40:26.293Z,100735.69
2022-07-27T13:42:53.065Z,100724.41
2022-07-27T13:45:19.778Z,100735.78
2022-07-27T13:47:46.470Z,100744.50
2022-07-27T13:50:18.260Z,100744.25
2022-07-27T13:52:47.314Z,100759.38
2022-07-27T13:55:15.507Z,100755.22
2022-07-27T13:57:42.633Z,100764.66
2022-07-27T14:00:10.249Z,100754.94
2022-07-27T14:02:36.983Z,100766.13
2022-07-27T14:05:06.014Z,100758.59
2022-07-27T14:07:33.867Z,100766.19
2022-07-27T14:10:19.308Z,100761.09
2022-07-27T14:12:46.054Z,100756.88
2022-07-27T14:15:13.147Z,100748.53
2022-07-27T14:17:39.917Z,100751.16
2022-07-27T14:20:07.255Z,100752.78
2022-07-27T14:22:34.030Z,100763.50
2022-07-27T14:25:00.679Z,100756.75
2022-07-27T14:27:33.602Z,100753.22
2022-07-27T14:30:06.984Z,100752.28
2022-07-27T14:32:34.826Z,100752.03
2022-07-27T14:35:01.740Z,100743.81
2022-07-27T14:37:28.389Z,100746.41
2022-07-27T14:39:55.030Z,100752.81
2022-07-27T14:42:23.903Z,100754.28
2022-07-27T14:44:50.529Z,100758.69
2022-07-27T14:47:17.345Z,100752.97
2022-07-27T14:49:44.144Z,100750.34
2022-07-27T14:52:13.588Z,100741.16
2022-07-27T14:54:45.427Z,100746.25
2022-07-27T14:57:12.370Z,100742.81
2022-07-27T14:59:40.084Z,100750.28
2022-07-27T15:02:07.670Z,100746.03
2022-07-27T15:04:34.559Z,100745.44
2022-07-27T15:07:02.025Z,100751.63
2022-07-27T15:09:30.280Z,100749.38
2022-07-27T15:11:58.391Z,100753.78
2022-07-27T15:14:25.346Z,100759.03
2022-07-27T15:16:53.613Z,100742.09
2022-07-27T15:19:22.898Z,100748.03
2022-07-27T15:21:49.688Z,100755.22
2022-07-27T15:24:16.725Z,100755.78
2022-07-27T15:26:43.382Z,100753.34
2022-07-27T15:29:14.770Z,100760.41
2022-07-27T15:31:41.759Z,100756.56
2022-07-27T15:34:08.489Z,100757.28
2022-07-27T15:36:37.692Z,100752.50
2022-07-27T15:39:09.894Z,100758.19
2022-07-27T15:41:37.769Z,100767.28
2022-07-27T15:44:06.003Z,100770.25
2022-07-27T15:46:41.016Z,100771.66
2022-07-27T15:49:09.065Z,100765.00
2022-07-27T15:51:36.055Z,100761.91
2022-07-27T15:54:02.693Z,100755.13
2022-07-27T15:56:29.427Z,100763.59
2022-07-27T15:58:56.162Z,100765.44
2022-07-27T16:01:22.882Z,100760.81
2022-07-27T16:04:01.893Z,100767.69
2022-07-27T16:06:29.279Z,100769.88
2022-07-27T16:08:56.365Z,100777.66
2022-07-27T16:11:23.030Z,100765.91
2022-07-27T16:13:49.644Z,100771.63
2022-07-27T16:16:22.253Z,100762.53
2022-07-27T16:18:51.121Z,100761.84
2022-07-27T16:21:21.738Z,100784.22
2022-07-27T16:23:49.099Z,100777.28
2022-07-27T16:26:16.006Z,100776.66
2022-07-27T16:28:45.781Z,100766.97
2022-07-27T16:31:18.653Z,100771.06
2022-07-27T16:33:46.307Z,100769.66
2022-07-27T16:36:13.248Z,100766.47
2022-07-27T16:38:49.539Z,100767.75
2022-07-27T16:41:18.983Z,100772.88
2022-07-27T16:43:45.885Z,100768.44
2022-07-27T16:46:12.743Z,100778.56
2022-07-27T16:48:42.621Z,100783.22
2022-07-27T16:51:11.889Z,100769.91
2022-07-27T16:53:45.343Z,100765.50
2022-07-27T16:56:14.585Z,100772.59
2022-07-27T16:58:41.332Z,100769.63
2022-07-27T17:01:15.131Z,100769.88
2022-07-27T17:03:53.617Z,100779.19
2022-07-27T17:06:21.020Z,100778.13
2022-07-27T17:08:48.505Z,100772.59
2022-07-27T17:11:17.504Z,100782.09
2022-07-27T17:13:49.048Z,100782.16
2022-07-27T17:16:18.600Z,100787.66
2022-07-27T17:18:47.531Z,100786.34
2022-07-27T17:21:14.639Z,100793.53
2022-07-27T17:23:43.962Z,100791.75
2022-07-27T17:26:12.466Z,100791.88
2022-07-27T17:28:40.531Z,100795.44
2022-07-27T17:31:12.725Z,100793.81
2022-07-27T17:33:40.452Z,100799.53
2022-07-27T17:36:12.265Z,100793.00
2022-07-27T17:38:45.766Z,100797.22
2022-07-27T17:41:14.215Z,100795.44
2022-07-27T17:43:43.632Z,100797.06
2022-07-27T17:46:11.474Z,100806.50
2022-07-27T17:48:41.962Z,100801.31
2022-07-27T17:51:12.427Z,100804.78
2022-07-27T17:53:41.812Z,100801.31
2022-07-27T17:56:11.039Z,100801.72
2022-07-27T17:58:42.622Z,100807.47
2022-07-27T18:01:09.482Z,100809.31
2022-07-27T18:03:38.635Z,100798.50
2022-07-27T18:06:05.421Z,100798.25
2022-07-27T18:08:32.097Z,100805.97
2022-07-27T18:11:03.875Z,100817.25
2022-07-27T18:13:39.075Z,100810.34
2022-07-27T18:16:08.004Z,100803.97
2022-07-27T18:18:36.404Z,100810.75
2022-07-27T18:21:08.867Z,100809.22
2022-07-27T18:23:37.711Z,100803.69
2022-07-27T18:26:05.169Z,100808.00
2022-07-27T18:28:39.003Z,100803.53
2022-07-27T18:31:06.583Z,100806.25
2022-07-27T18:33:36.274Z,100810.47
2022-07-27T18:36:03.947Z,100811.88
2022-07-27T18:38:30.628Z,100825.25
2022-07-27T18:40:57.368Z,100816.53
2022-07-27T18:43:24.066Z,100820.88
2022-07-27T18:45:51.107Z,100822.66
2022-07-27T18:48:17.848Z,100818.59
2022-07-27T18:50:45.868Z,100838.66
2022-07-27T18:53:14.877Z,100825.53
2022-07-27T18:55:41.671Z,100831.66
2022-07-27T18:58:08.590Z,100839.56
2022-07-27T19:00:35.334Z,100844.47
2022-07-27T19:03:02.191Z,100840.47
2022-07-27T19:05:40.804Z,100844.56
2022-07-27T19:08:28.777Z,100850.88
2022-07-27T19:10:55.420Z,100849.75
2022-07-27T19:13:22.238Z,100850.69
2022-07-27T19:15:51.640Z,100846.81
2022-07-27T19:18:20.927Z,100863.28
2022-07-27T19:20:50.219Z,100867.41
2022-07-27T19:23:17.116Z,100864.31
2022-07-27T19:25:50.747Z,100871.81
2022-07-27T19:28:20.417Z,100873.31
2022-07-27T19:30:49.864Z,100871.75
2022-07-27T19:33:18.276Z,100877.00
2022-07-27T19:35:45.009Z,100883.19
2022-07-27T19:38:14.210Z,100874.88
2022-07-27T19:40:45.301Z,100882.88
2022-07-27T19:43:13.535Z,100888.63
2022-07-27T19:45:41.079Z,100882.16
2022-07-27T19:48:08.344Z,100894.19
2022-07-27T19:50:35.290Z,100888.47
2022-07-27T19:53:05.055Z,100901.97
2022-07-27T19:55:31.683Z,100891.69
2022-07-27T19:57:58.629Z,100891.66
2022-07-27T20:00:25.295Z,100888.31
2022-07-27T20:02:55.444Z,100894.78
2022-07-27T20:05:22.200Z,100913.00
2022-07-27T20:07:48.846Z,100904.78
2022-07-27T20:10:15.603Z,100899.38
2022-07-27T20:12:42.283Z,100905.47
2022-07-27T20:15:09.267Z,100912.38
2022-07-27T20:17:40.518Z,100913.19
2022-07-27T20:20:08.610Z,100920.81
2022-07-27T20:22:35.398Z,100912.97
2022-07-27T20:25:02.671Z,100929.41
2022-07-27T20:27:29.475Z,100926.16
2022-07-27T20:29:56.154Z,100926.06
2022-07-27T20:32:22.786Z,100933.94
2022-07-27T20:34:49.521Z,100929.00
2022-07-27T20:37:16.223Z,100936.78
2022-07-27T20:39:42.862Z,100939.63
2022-07-27T20:42:10.845Z,100939.22
2022-07-27T20:44:37.623Z,100942.66
2022-07-27T20:47:07.971Z,100942.16
2022-07-27T20:49:34.716Z,100946.56
2022-07-27T20:52:01.741Z,100938.72
2022-07-27T20:54:29.088Z,100943.59
2022-07-27T20:56:57.086Z,100946.22
2022-07-27T20:59:24.177Z,100952.53
2022-07-27T21:01:51.100Z,100959.88
2022-07-27T21:04:27.035Z,100958.31
2022-07-27T21:06:54.244Z,100961.66
2022-07-27T21:09:22.049Z,100958.38
2022-07-27T21:11:49.184Z,100961.63
2022-07-27T21:14:15.969Z,100961.00
2022-07-27T21:16:42.640Z,100966.22
2022-07-27T21:19:10.262Z,100968.47
2022-07-27T21:21:37.368Z,100980.28
2022-07-27T21:24:18.542Z,100976.44
2022-07-27T21:26:50.652Z,100983.66
2022-07-27T21:29:18.125Z,100977.13
2022-07-27T21:31:49.457Z,100983.31
2022-07-27T21:34:22.995Z,100989.03
2022-07-27T21:36:49.708Z,100988.13
2022-07-27T21:39:17.972Z,101000.25
2022-07-27T21:41:45.204Z,100997.03
2022-07-27T21:44:12.303Z,100993.56
2022-07-27T21:46:39.126Z,100998.09
2022-07-27T21:49:05.837Z,101004.88
2022-07-27T21:51:32.580Z,101003.31
2022-07-27T21:53:59.365Z,101006.75
2022-07-27T21:56:26.628Z,101010.31
2022-07-27T21:58:53.355Z,101015.13
2022-07-27T22:01:20.001Z,101002.28
2022-07-27T22:03:46.886Z,101008.94
2022-07-27T22:06:13.974Z,101007.81
2022-07-27T22:08:40.589Z,101013.75
2022-07-27T22:11:07.357Z,101014.78
2022-07-27T22:13:34.281Z,101020.88
2022-07-27T22:16:01.226Z,101017.75
2022-07-27T22:18:29.891Z,101018.34
2022-07-27T22:20:57.040Z,101024.97
2022-07-27T22:23:24.011Z,101023.22
2022-07-27T22:25:51.457Z,101026.97
2022-07-27T22:28:18.085Z,101027.47
2022-07-27T22:30:59.968Z,101029.03
2022-07-27T22:33:31.427Z,101038.91
2022-07-27T22:36:02.211Z,101042.03
2022-07-27T22:38:31.308Z,101041.31
2022-07-27T22:41:00.529Z,101039.22
2022-07-27T22:43:29.241Z,101041.00
2022-07-27T22:46:05.182Z,101047.16
2022-07-27T22:48:33.848Z,101034.69
2022-07-27T22:51:00.544Z,101039.31
2022-07-27T22:53:27.155Z,101035.56
2022-07-27T22:55:53.955Z,101050.13
2022-07-27T22:58:20.762Z,101048.66
2022-07-27T23:00:47.490Z,101049.78
2022-07-27T23:03:14.413Z,101053.22
2022-07-27T23:05:41.080Z,101050.13
2022-07-27T23:08:07.811Z,101052.75
2022-07-27T23:10:46.368Z,101063.50
2022-07-27T23:13:17.968Z,101056.91
2022-07-27T23:15:45.794Z,101062.97
2022-07-27T23:18:13.137Z,101060.56
2022-07-27T23:20:41.214Z,101073.44
2022-07-27T23:23:15.432Z,101075.22
2022-07-27T23:25:44.991Z,101083.81
2022-07-27T23:28:11.831Z,101080.97
2022-07-27T23:30:38.810Z,101085.03
2022-07-27T23:33:05.449Z,101090.38
2022-07-27T23:35:32.381Z,101090.72
2022-07-27T23:38:00.247Z,101090.72
2022-07-27T23:40:27.332Z,101087.97
2022-07-27T23:42:54.103Z,101089.97
2022-07-27T23:45:20.713Z,101091.00
2022-07-27T23:47:47.355Z,101086.41
2022-07-27T23:50:14.141Z,101089.22
2022-07-27T23:52:40.915Z,101088.50
2022-07-27T23:55:10.747Z,101084.28
2022-07-27T23:57:37.457Z,101092.25
